Terminal Aerodrome Forecast
Issued by NWS

Home | Current Version | Previous Version | Text Only | Print | Product List | Glossary On
Versions: 1 2 3 4 5 6 7 8 9 10 11 12 13 14 15 16 17 18 19
841
FTUS45 KMSO 141738
TAFSMN
TAF
KSMN 141738Z 1418/1518 VRB03KT P6SM SCT045 BKN060
     FM150900 21006KT P6SM VCSH SCT040 OVC060
     FM151700 27010G20KT P6SM OVC050
      AMD LTD TO CLD VIS AND WIND=

USA.gov is the U.S. government's official web portal to all federal, state and local government web resources and services.